sensor_id;sensor_type;location;lat;lon;timestamp;pressure;altitude;pressure_sealevel;temperature;humidity
60642;BME280;46837;52.446;-1.930;2023-05-19T00:00:09;101357.57;;;15.22;60.54
60642;BME280;46837;52.446;-1.930;2023-05-19T00:01:11;101355.36;;;15.19;60.47
60642;BME280;46837;52.446;-1.930;2023-05-19T00:02:10;101354.47;;;15.19;60.47
60642;BME280;46837;52.446;-1.930;2023-05-19T00:03:09;101352.94;;;15.20;60.34
60642;BME280;46837;52.446;-1.930;2023-05-19T00:04:09;101354.64;;;15.21;60.25
60642;BME280;46837;52.446;-1.930;2023-05-19T00:05:09;101351.14;;;15.14;60.29
60642;BME280;46837;52.446;-1.930;2023-05-19T00:06:09;101351.44;;;15.15;60.20
60642;BME280;46837;52.446;-1.930;2023-05-19T00:07:10;101352.07;;;15.11;60.19
60642;BME280;46837;52.446;-1.930;2023-05-19T00:08:10;101348.05;;;15.08;60.13
60642;BME280;46837;52.446;-1.930;2023-05-19T00:09:09;101349.46;;;15.06;60.08
60642;BME280;46837;52.446;-1.930;2023-05-19T00:10:09;101344.63;;;15.05;60.05
60642;BME280;46837;52.446;-1.930;2023-05-19T00:11:09;101345.95;;;15.07;59.95
60642;BME280;46837;52.446;-1.930;2023-05-19T00:12:09;101343.41;;;15.03;59.93
60642;BME280;46837;52.446;-1.930;2023-05-19T00:13:09;101345.35;;;15.05;59.89
60642;BME280;46837;52.446;-1.930;2023-05-19T00:14:09;101343.46;;;15.03;59.94
60642;BME280;46837;52.446;-1.930;2023-05-19T00:15:09;101343.91;;;15.02;59.92
60642;BME280;46837;52.446;-1.930;2023-05-19T00:16:09;101342.83;;;14.96;60.07
60642;BME280;46837;52.446;-1.930;2023-05-19T00:17:09;101343.68;;;14.99;59.95
60642;BME280;46837;52.446;-1.930;2023-05-19T00:18:10;101346.36;;;14.95;60.00
60642;BME280;46837;52.446;-1.930;2023-05-19T00:19:09;101346.53;;;14.99;59.88
60642;BME280;46837;52.446;-1.930;2023-05-19T00:20:09;101342.02;;;14.99;59.83
60642;BME280;46837;52.446;-1.930;2023-05-19T00:21:09;101340.85;;;14.99;59.86
60642;BME280;46837;52.446;-1.930;2023-05-19T00:22:09;101342.13;;;14.98;60.00
60642;BME280;46837;52.446;-1.930;2023-05-19T00:23:09;101342.94;;;14.97;59.96
60642;BME280;46837;52.446;-1.930;2023-05-19T00:24:09;101338.49;;;14.99;59.88
60642;BME280;46837;52.446;-1.930;2023-05-19T00:25:09;101343.69;;;14.90;60.02
60642;BME280;46837;52.446;-1.930;2023-05-19T00:26:09;101341.11;;;14.93;59.97
60642;BME280;46837;52.446;-1.930;2023-05-19T00:27:09;101341.53;;;14.89;59.98
60642;BME280;46837;52.446;-1.930;2023-05-19T00:28:09;101340.61;;;14.91;59.97
60642;BME280;46837;52.446;-1.930;2023-05-19T00:29:09;101340.50;;;14.92;59.85
60642;BME280;46837;52.446;-1.930;2023-05-19T00:30:09;101341.55;;;14.94;59.83
60642;BME280;46837;52.446;-1.930;2023-05-19T00:31:09;101340.39;;;14.93;59.77
60642;BME280;46837;52.446;-1.930;2023-05-19T00:32:09;101336.32;;;14.93;59.79
60642;BME280;46837;52.446;-1.930;2023-05-19T00:33:09;101337.64;;;14.93;59.86
60642;BME280;46837;52.446;-1.930;2023-05-19T00:34:09;101339.14;;;14.94;59.76
60642;BME280;46837;52.446;-1.930;2023-05-19T00:35:09;101341.55;;;14.93;59.84
60642;BME280;46837;52.446;-1.930;2023-05-19T00:36:09;101341.23;;;14.94;59.84
60642;BME280;46837;52.446;-1.930;2023-05-19T00:37:09;101340.73;;;14.95;59.79
60642;BME280;46837;52.446;-1.930;2023-05-19T00:38:09;101337.70;;;14.96;59.70
60642;BME280;46837;52.446;-1.930;2023-05-19T00:39:09;101340.29;;;14.94;59.75
60642;BME280;46837;52.446;-1.930;2023-05-19T00:40:09;101336.14;;;14.92;59.72
60642;BME280;46837;52.446;-1.930;2023-05-19T00:41:09;101331.97;;;14.93;59.64
60642;BME280;46837;52.446;-1.930;2023-05-19T00:42:09;101332.93;;;14.95;59.56
60642;BME280;46837;52.446;-1.930;2023-05-19T00:43:10;101334.19;;;14.94;59.54
60642;BME280;46837;52.446;-1.930;2023-05-19T00:44:09;101332.59;;;14.95;59.52
60642;BME280;46837;52.446;-1.930;2023-05-19T00:45:09;101337.30;;;14.92;59.64
60642;BME280;46837;52.446;-1.930;2023-05-19T00:46:09;101334.82;;;14.89;59.60
60642;BME280;46837;52.446;-1.930;2023-05-19T00:47:09;101336.47;;;14.89;59.62
60642;BME280;46837;52.446;-1.930;2023-05-19T00:48:09;101336.97;;;14.92;59.62
60642;BME280;46837;52.446;-1.930;2023-05-19T00:49:09;101340.65;;;14.89;59.66
60642;BME280;46837;52.446;-1.930;2023-05-19T00:50:09;101338.07;;;14.87;59.70
60642;BME280;46837;52.446;-1.930;2023-05-19T00:51:09;101335.48;;;14.87;59.87
60642;BME280;46837;52.446;-1.930;2023-05-19T00:52:09;101339.39;;;14.88;59.74
60642;BME280;46837;52.446;-1.930;2023-05-19T00:53:09;101343.07;;;14.88;59.75
60642;BME280;46837;52.446;-1.930;2023-05-19T00:54:09;101339.50;;;14.89;59.73
60642;BME280;46837;52.446;-1.930;2023-05-19T00:55:09;101340.81;;;14.86;59.74
60642;BME280;46837;52.446;-1.930;2023-05-19T00:56:09;101342.11;;;14.82;59.81
60642;BME280;46837;52.446;-1.930;2023-05-19T00:57:09;101344.14;;;14.77;59.97
60642;BME280;46837;52.446;-1.930;2023-05-19T00:58:09;101343.10;;;14.82;59.86
60642;BME280;46837;52.446;-1.930;2023-05-19T00:59:09;101341.32;;;14.76;59.93
60642;BME280;46837;52.446;-1.930;2023-05-19T01:00:09;101342.69;;;14.76;59.94
60642;BME280;46837;52.446;-1.930;2023-05-19T01:01:09;101339.97;;;14.80;59.83
60642;BME280;46837;52.446;-1.930;2023-05-19T01:02:09;101342.66;;;14.82;59.78
60642;BME280;46837;52.446;-1.930;2023-05-19T01:03:12;101338.91;;;14.82;59.73
60642;BME280;46837;52.446;-1.930;2023-05-19T01:04:11;101336.51;;;14.86;59.68
60642;BME280;46837;52.446;-1.930;2023-05-19T01:05:09;101337.73;;;14.84;59.62
60642;BME280;46837;52.446;-1.930;2023-05-19T01:06:09;101338.80;;;14.82;59.65
60642;BME280;46837;52.446;-1.930;2023-05-19T01:07:09;101337.36;;;14.78;59.68
60642;BME280;46837;52.446;-1.930;2023-05-19T01:08:09;101342.45;;;14.83;59.63
60642;BME280;46837;52.446;-1.930;2023-05-19T01:09:09;101343.62;;;14.85;59.61
60642;BME280;46837;52.446;-1.930;2023-05-19T01:10:09;101343.61;;;14.84;59.47
60642;BME280;46837;52.446;-1.930;2023-05-19T01:11:09;101345.38;;;14.84;59.46
60642;BME280;46837;52.446;-1.930;2023-05-19T01:12:09;101345.30;;;14.80;59.59
60642;BME280;46837;52.446;-1.930;2023-05-19T01:13:09;101343.88;;;14.81;59.52
60642;BME280;46837;52.446;-1.930;2023-05-19T01:14:09;101342.62;;;14.83;59.55
60642;BME280;46837;52.446;-1.930;2023-05-19T01:15:09;101342.68;;;14.84;59.47
60642;BME280;46837;52.446;-1.930;2023-05-19T01:16:21;101339.76;;;14.83;59.44
60642;BME280;46837;52.446;-1.930;2023-05-19T01:18:11;101341.97;;;14.85;59.31
60642;BME280;46837;52.446;-1.930;2023-05-19T01:19:20;101346.32;;;14.84;59.34
60642;BME280;46837;52.446;-1.930;2023-05-19T01:20:15;101343.72;;;14.83;59.34
60642;BME280;46837;52.446;-1.930;2023-05-19T01:30:30;101334.84;;;14.82;59.26
60642;BME280;46837;52.446;-1.930;2023-05-19T01:31:09;101333.67;;;14.76;59.38
60642;BME280;46837;52.446;-1.930;2023-05-19T01:32:09;101338.20;;;14.77;59.39
60642;BME280;46837;52.446;-1.930;2023-05-19T01:33:10;101337.62;;;14.73;59.47
60642;BME280;46837;52.446;-1.930;2023-05-19T01:34:09;101335.96;;;14.74;59.42
60642;BME280;46837;52.446;-1.930;2023-05-19T01:35:09;101338.88;;;14.74;59.47
60642;BME280;46837;52.446;-1.930;2023-05-19T01:36:09;101332.77;;;14.72;59.46
60642;BME280;46837;52.446;-1.930;2023-05-19T01:37:09;101335.80;;;14.71;59.53
60642;BME280;46837;52.446;-1.930;2023-05-19T01:38:09;101338.32;;;14.71;59.57
60642;BME280;46837;52.446;-1.930;2023-05-19T01:39:09;101340.46;;;14.71;59.52
60642;BME280;46837;52.446;-1.930;2023-05-19T01:40:09;101335.96;;;14.72;59.54
60642;BME280;46837;52.446;-1.930;2023-05-19T01:41:09;101337.35;;;14.74;59.48
60642;BME280;46837;52.446;-1.930;2023-05-19T01:42:09;101336.03;;;14.74;59.42
60642;BME280;46837;52.446;-1.930;2023-05-19T01:43:11;101335.09;;;14.74;59.45
60642;BME280;46837;52.446;-1.930;2023-05-19T01:44:09;101334.38;;;14.74;59.52
60642;BME280;46837;52.446;-1.930;2023-05-19T01:45:09;101338.42;;;14.66;59.64
60642;BME280;46837;52.446;-1.930;2023-05-19T01:46:09;101338.34;;;14.62;59.89
60642;BME280;46837;52.446;-1.930;2023-05-19T01:47:09;101335.38;;;14.63;59.83
60642;BME280;46837;52.446;-1.930;2023-05-19T01:48:09;101334.82;;;14.63;59.84
60642;BME280;46837;52.446;-1.930;2023-05-19T01:49:09;101330.36;;;14.64;59.79
60642;BME280;46837;52.446;-1.930;2023-05-19T01:50:09;101328.82;;;14.64;59.78
60642;BME280;46837;52.446;-1.930;2023-05-19T01:51:09;101328.29;;;14.65;59.74
60642;BME280;46837;52.446;-1.930;2023-05-19T01:52:09;101326.76;;;14.67;59.74
60642;BME280;46837;52.446;-1.930;2023-05-19T01:53:09;101321.20;;;14.68;59.69
60642;BME280;46837;52.446;-1.930;2023-05-19T01:54:09;101324.90;;;14.70;59.62
60642;BME280;46837;52.446;-1.930;2023-05-19T01:55:09;101320.65;;;14.67;59.65
60642;BME280;46837;52.446;-1.930;2023-05-19T01:56:09;101322.15;;;14.70;59.61
60642;BME280;46837;52.446;-1.930;2023-05-19T01:58:30;101316.38;;;14.70;59.54
60642;BME280;46837;52.446;-1.930;2023-05-19T02:00:06;101312.48;;;14.73;59.51
60642;BME280;46837;52.446;-1.930;2023-05-19T02:00:16;101311.05;;;14.73;59.51
60642;BME280;46837;52.446;-1.930;2023-05-19T02:02:37;101312.57;;;14.70;59.60
60642;BME280;46837;52.446;-1.930;2023-05-19T02:05:17;101310.41;;;14.66;59.62
60642;BME280;46837;52.446;-1.930;2023-05-19T02:08:15;101310.85;;;14.68;59.64
60642;BME280;46837;52.446;-1.930;2023-05-19T02:10:15;101310.96;;;14.68;59.55
60642;BME280;46837;52.446;-1.930;2023-05-19T02:11:25;101313.66;;;14.69;59.58
60642;BME280;46837;52.446;-1.930;2023-05-19T02:13:10;101311.37;;;14.71;59.51
60642;BME280;46837;52.446;-1.930;2023-05-19T02:14:16;101314.73;;;14.70;59.58
60642;BME280;46837;52.446;-1.930;2023-05-19T02:15:13;101313.34;;;14.69;59.70
60642;BME280;46837;52.446;-1.930;2023-05-19T02:16:09;101312.34;;;14.68;59.64
60642;BME280;46837;52.446;-1.930;2023-05-19T02:17:09;101313.23;;;14.70;59.66
60642;BME280;46837;52.446;-1.930;2023-05-19T02:18:10;101313.57;;;14.70;59.54
60642;BME280;46837;52.446;-1.930;2023-05-19T02:19:31;101314.17;;;14.70;59.45
60642;BME280;46837;52.446;-1.930;2023-05-19T02:20:09;101317.52;;;14.71;59.44
60642;BME280;46837;52.446;-1.930;2023-05-19T02:21:09;101319.46;;;14.71;59.45
60642;BME280;46837;52.446;-1.930;2023-05-19T02:22:09;101315.09;;;14.68;59.51
60642;BME280;46837;52.446;-1.930;2023-05-19T02:23:09;101314.79;;;14.64;59.60
60642;BME280;46837;52.446;-1.930;2023-05-19T02:24:09;101313.59;;;14.63;59.59
60642;BME280;46837;52.446;-1.930;2023-05-19T02:25:09;101313.37;;;14.63;59.60
60642;BME280;46837;52.446;-1.930;2023-05-19T02:26:09;101313.30;;;14.62;59.65
60642;BME280;46837;52.446;-1.930;2023-05-19T02:27:09;101315.75;;;14.58;59.70
60642;BME280;46837;52.446;-1.930;2023-05-19T02:28:09;101316.82;;;14.60;59.66
60642;BME280;46837;52.446;-1.930;2023-05-19T02:29:09;101313.80;;;14.60;59.68
60642;BME280;46837;52.446;-1.930;2023-05-19T02:30:09;101315.21;;;14.58;59.71
60642;BME280;46837;52.446;-1.930;2023-05-19T02:31:10;101317.51;;;14.55;59.77
60642;BME280;46837;52.446;-1.930;2023-05-19T02:32:09;101314.47;;;14.52;59.85
60642;BME280;46837;52.446;-1.930;2023-05-19T02:33:09;101315.84;;;14.52;59.94
60642;BME280;46837;52.446;-1.930;2023-05-19T02:34:09;101315.99;;;14.50;59.96
60642;BME280;46837;52.446;-1.930;2023-05-19T02:35:09;101314.42;;;14.49;60.02
60642;BME280;46837;52.446;-1.930;2023-05-19T02:36:09;101316.83;;;14.46;60.12
60642;BME280;46837;52.446;-1.930;2023-05-19T02:37:09;101317.25;;;14.44;60.17
60642;BME280;46837;52.446;-1.930;2023-05-19T02:38:09;101314.49;;;14.42;60.26
60642;BME280;46837;52.446;-1.930;2023-05-19T02:39:09;101314.20;;;14.38;60.39
60642;BME280;46837;52.446;-1.930;2023-05-19T02:40:09;101316.45;;;14.38;60.42
60642;BME280;46837;52.446;-1.930;2023-05-19T02:41:09;101317.20;;;14.36;60.55
60642;BME280;46837;52.446;-1.930;2023-05-19T02:42:09;101316.77;;;14.37;60.58
60642;BME280;46837;52.446;-1.930;2023-05-19T02:43:09;101313.75;;;14.35;60.69
60642;BME280;46837;52.446;-1.930;2023-05-19T02:44:09;101313.83;;;14.31;60.92
60642;BME280;46837;52.446;-1.930;2023-05-19T02:45:09;101316.68;;;14.30;60.97
60642;BME280;46837;52.446;-1.930;2023-05-19T02:46:09;101317.71;;;14.29;61.05
60642;BME280;46837;52.446;-1.930;2023-05-19T02:47:09;101316.94;;;14.27;61.21
60642;BME280;46837;52.446;-1.930;2023-05-19T02:48:09;101318.35;;;14.26;61.24
60642;BME280;46837;52.446;-1.930;2023-05-19T02:49:09;101318.32;;;14.20;61.32
60642;BME280;46837;52.446;-1.930;2023-05-19T02:50:09;101316.98;;;14.18;61.46
60642;BME280;46837;52.446;-1.930;2023-05-19T02:51:09;101316.07;;;14.21;61.38
60642;BME280;46837;52.446;-1.930;2023-05-19T02:52:09;101316.18;;;14.20;61.42
60642;BME280;46837;52.446;-1.930;2023-05-19T02:53:09;101317.53;;;14.17;61.52
60642;BME280;46837;52.446;-1.930;2023-05-19T02:54:09;101312.89;;;14.15;61.57
60642;BME280;46837;52.446;-1.930;2023-05-19T02:55:09;101313.83;;;14.14;61.64
60642;BME280;46837;52.446;-1.930;2023-05-19T02:56:09;101314.58;;;14.11;61.81
60642;BME280;46837;52.446;-1.930;2023-05-19T02:57:09;101313.00;;;14.14;61.77
60642;BME280;46837;52.446;-1.930;2023-05-19T02:58:09;101311.74;;;14.15;61.71
60642;BME280;46837;52.446;-1.930;2023-05-19T02:59:09;101314.50;;;14.16;61.67
60642;BME280;46837;52.446;-1.930;2023-05-19T03:00:09;101314.39;;;14.09;61.87
60642;BME280;46837;52.446;-1.930;2023-05-19T03:01:09;101315.54;;;14.08;61.90
60642;BME280;46837;52.446;-1.930;2023-05-19T03:02:09;101316.34;;;14.03;62.08
60642;BME280;46837;52.446;-1.930;2023-05-19T03:03:09;101314.18;;;14.02;62.14
60642;BME280;46837;52.446;-1.930;2023-05-19T03:04:09;101316.28;;;14.04;62.09
60642;BME280;46837;52.446;-1.930;2023-05-19T03:05:09;101319.21;;;14.05;62.02
60642;BME280;46837;52.446;-1.930;2023-05-19T03:06:10;101320.34;;;14.00;62.14
60642;BME280;46837;52.446;-1.930;2023-05-19T03:07:09;101325.13;;;14.03;62.16
60642;BME280;46837;52.446;-1.930;2023-05-19T03:08:09;101328.90;;;14.00;62.27
60642;BME280;46837;52.446;-1.930;2023-05-19T03:09:09;101330.64;;;13.96;62.35
60642;BME280;46837;52.446;-1.930;2023-05-19T03:10:09;101331.54;;;13.94;62.41
60642;BME280;46837;52.446;-1.930;2023-05-19T03:11:09;101331.32;;;13.94;62.39
60642;BME280;46837;52.446;-1.930;2023-05-19T03:12:09;101334.39;;;13.92;62.49
60642;BME280;46837;52.446;-1.930;2023-05-19T03:13:09;101334.39;;;13.93;62.45
60642;BME280;46837;52.446;-1.930;2023-05-19T03:14:09;101334.07;;;13.93;62.39
60642;BME280;46837;52.446;-1.930;2023-05-19T03:15:09;101334.25;;;13.96;62.44
60642;BME280;46837;52.446;-1.930;2023-05-19T03:16:09;101336.34;;;13.95;62.36
60642;BME280;46837;52.446;-1.930;2023-05-19T03:17:11;101335.17;;;13.94;62.31
60642;BME280;46837;52.446;-1.930;2023-05-19T03:18:09;101341.04;;;13.92;62.31
60642;BME280;46837;52.446;-1.930;2023-05-19T03:20:09;101336.85;;;13.90;62.42
60642;BME280;46837;52.446;-1.930;2023-05-19T03:21:09;101339.49;;;13.90;62.43
60642;BME280;46837;52.446;-1.930;2023-05-19T03:22:09;101334.98;;;13.82;62.53
60642;BME280;46837;52.446;-1.930;2023-05-19T03:23:09;101331.79;;;13.82;62.50
60642;BME280;46837;52.446;-1.930;2023-05-19T03:24:09;101334.76;;;13.83;62.49
60642;BME280;46837;52.446;-1.930;2023-05-19T03:25:09;101336.49;;;13.81;62.57
60642;BME280;46837;52.446;-1.930;2023-05-19T03:26:09;101340.57;;;13.77;62.70
60642;BME280;46837;52.446;-1.930;2023-05-19T03:27:09;101338.26;;;13.75;62.76
60642;BME280;46837;52.446;-1.930;2023-05-19T03:28:09;101340.01;;;13.74;62.80
60642;BME280;46837;52.446;-1.930;2023-05-19T03:29:09;101338.34;;;13.78;62.71
60642;BME280;46837;52.446;-1.930;2023-05-19T03:30:09;101340.92;;;13.78;62.69
60642;BME280;46837;52.446;-1.930;2023-05-19T03:31:09;101336.54;;;13.79;62.59
60642;BME280;46837;52.446;-1.930;2023-05-19T03:32:09;101339.38;;;13.65;63.00
60642;BME280;46837;52.446;-1.930;2023-05-19T03:33:09;101342.66;;;13.64;63.05
60642;BME280;46837;52.446;-1.930;2023-05-19T03:34:09;101340.15;;;13.66;63.05
60642;BME280;46837;52.446;-1.930;2023-05-19T03:35:09;101340.64;;;13.65;62.95
60642;BME280;46837;52.446;-1.930;2023-05-19T03:36:09;101339.79;;;13.68;62.95
60642;BME280;46837;52.446;-1.930;2023-05-19T03:37:09;101343.58;;;13.68;62.96
60642;BME280;46837;52.446;-1.930;2023-05-19T03:38:09;101343.26;;;13.68;62.98
60642;BME280;46837;52.446;-1.930;2023-05-19T03:39:09;101343.54;;;13.65;63.03
60642;BME280;46837;52.446;-1.930;2023-05-19T03:40:09;101343.12;;;13.67;63.00
60642;BME280;46837;52.446;-1.930;2023-05-19T03:41:09;101343.65;;;13.70;62.91
60642;BME280;46837;52.446;-1.930;2023-05-19T03:42:09;101348.60;;;13.71;62.89
60642;BME280;46837;52.446;-1.930;2023-05-19T03:43:09;101345.95;;;13.70;62.88
60642;BME280;46837;52.446;-1.930;2023-05-19T03:44:09;101344.05;;;13.71;62.85
60642;BME280;46837;52.446;-1.930;2023-05-19T03:45:09;101343.45;;;13.73;62.76
60642;BME280;46837;52.446;-1.930;2023-05-19T03:46:09;101341.03;;;13.72;62.75
60642;BME280;46837;52.446;-1.930;2023-05-19T03:47:09;101342.79;;;13.71;62.77
60642;BME280;46837;52.446;-1.930;2023-05-19T03:48:09;101339.96;;;13.68;62.88
60642;BME280;46837;52.446;-1.930;2023-05-19T03:49:09;101340.87;;;13.66;62.84
60642;BME280;46837;52.446;-1.930;2023-05-19T03:50:09;101342.41;;;13.67;62.84
60642;BME280;46837;52.446;-1.930;2023-05-19T03:51:09;101340.77;;;13.67;62.77
60642;BME280;46837;52.446;-1.930;2023-05-19T03:52:09;101340.25;;;13.65;62.77
60642;BME280;46837;52.446;-1.930;2023-05-19T03:53:09;101342.66;;;13.64;62.79
60642;BME280;46837;52.446;-1.930;2023-05-19T03:54:09;101341.62;;;13.59;62.88
60642;BME280;46837;52.446;-1.930;2023-05-19T03:55:09;101344.62;;;13.61;62.84
60642;BME280;46837;52.446;-1.930;2023-05-19T03:56:09;101345.93;;;13.60;62.88
60642;BME280;46837;52.446;-1.930;2023-05-19T03:57:09;101345.92;;;13.60;62.88
60642;BME280;46837;52.446;-1.930;2023-05-19T03:58:09;101348.60;;;13.58;62.91
60642;BME280;46837;52.446;-1.930;2023-05-19T03:59:09;101349.50;;;13.61;62.90
60642;BME280;46837;52.446;-1.930;2023-05-19T04:00:09;101348.74;;;13.61;62.84
60642;BME280;46837;52.446;-1.930;2023-05-19T04:01:09;101353.03;;;13.61;62.86
60642;BME280;46837;52.446;-1.930;2023-05-19T04:02:09;101353.28;;;13.60;62.85
60642;BME280;46837;52.446;-1.930;2023-05-19T04:03:09;101357.39;;;13.59;62.89
60642;BME280;46837;52.446;-1.930;2023-05-19T04:04:09;101358.16;;;13.59;62.92
60642;BME280;46837;52.446;-1.930;2023-05-19T04:05:09;101362.91;;;13.61;62.83
60642;BME280;46837;52.446;-1.930;2023-05-19T04:06:09;101363.70;;;13.58;62.91
60642;BME280;46837;52.446;-1.930;2023-05-19T04:07:09;101364.61;;;13.61;62.86
60642;BME280;46837;52.446;-1.930;2023-05-19T04:08:09;101364.22;;;13.60;62.83
60642;BME280;46837;52.446;-1.930;2023-05-19T04:09:11;101359.14;;;13.64;62.78
60642;BME280;46837;52.446;-1.930;2023-05-19T04:10:09;101355.31;;;13.65;62.71
60642;BME280;46837;52.446;-1.930;2023-05-19T04:11:09;101354.59;;;13.64;62.71
60642;BME280;46837;52.446;-1.930;2023-05-19T04:12:09;101350.50;;;13.63;62.75
60642;BME280;46837;52.446;-1.930;2023-05-19T04:13:09;101351.11;;;13.63;62.75
60642;BME280;46837;52.446;-1.930;2023-05-19T04:14:09;101347.02;;;13.66;62.72
60642;BME280;46837;52.446;-1.930;2023-05-19T04:15:09;101347.51;;;13.66;62.61
60642;BME280;46837;52.446;-1.930;2023-05-19T04:16:09;101345.19;;;13.70;62.55
60642;BME280;46837;52.446;-1.930;2023-05-19T04:17:09;101343.80;;;13.69;62.56
60642;BME280;46837;52.446;-1.930;2023-05-19T04:18:09;101340.18;;;13.68;62.55
60642;BME280;46837;52.446;-1.930;2023-05-19T04:19:09;101338.11;;;13.65;62.57
60642;BME280;46837;52.446;-1.930;2023-05-19T04:20:09;101338.93;;;13.65;62.59
60642;BME280;46837;52.446;-1.930;2023-05-19T04:21:10;101338.31;;;13.69;62.52
60642;BME280;46837;52.446;-1.930;2023-05-19T04:22:09;101337.95;;;13.70;62.45
60642;BME280;46837;52.446;-1.930;2023-05-19T04:23:09;101336.38;;;13.74;62.36
60642;BME280;46837;52.446;-1.930;2023-05-19T04:24:09;101334.57;;;13.74;62.36
60642;BME280;46837;52.446;-1.930;2023-05-19T04:25:09;101330.12;;;13.76;62.37
60642;BME280;46837;52.446;-1.930;2023-05-19T04:26:09;101330.70;;;13.71;62.48
60642;BME280;46837;52.446;-1.930;2023-05-19T04:27:13;101334.10;;;13.76;62.39
60642;BME280;46837;52.446;-1.930;2023-05-19T04:28:09;101333.89;;;13.80;62.35
60642;BME280;46837;52.446;-1.930;2023-05-19T04:29:09;101328.74;;;13.79;62.28
60642;BME280;46837;52.446;-1.930;2023-05-19T04:30:09;101325.17;;;13.80;62.27
60642;BME280;46837;52.446;-1.930;2023-05-19T04:31:12;101323.98;;;13.82;62.26
60642;BME280;46837;52.446;-1.930;2023-05-19T04:32:09;101322.77;;;13.82;62.23
60642;BME280;46837;52.446;-1.930;2023-05-19T04:33:09;101323.33;;;13.84;62.12
60642;BME280;46837;52.446;-1.930;2023-05-19T04:34:09;101320.55;;;13.85;62.12
60642;BME280;46837;52.446;-1.930;2023-05-19T04:35:09;101319.66;;;13.87;62.05
60642;BME280;46837;52.446;-1.930;2023-05-19T04:36:10;101317.27;;;13.88;62.02
60642;BME280;46837;52.446;-1.930;2023-05-19T04:37:09;101312.06;;;13.89;62.08
60642;BME280;46837;52.446;-1.930;2023-05-19T04:38:09;101311.25;;;13.92;62.01
60642;BME280;46837;52.446;-1.930;2023-05-19T04:39:11;101308.59;;;13.90;62.08
60642;BME280;46837;52.446;-1.930;2023-05-19T04:40:09;101308.17;;;13.90;62.10
60642;BME280;46837;52.446;-1.930;2023-05-19T04:41:09;101302.71;;;13.88;62.11
60642;BME280;46837;52.446;-1.930;2023-05-19T04:42:09;101304.29;;;13.88;62.05
60642;BME280;46837;52.446;-1.930;2023-05-19T04:43:09;101303.72;;;13.85;62.24
60642;BME280;46837;52.446;-1.930;2023-05-19T04:44:09;101301.05;;;13.88;62.31
60642;BME280;46837;52.446;-1.930;2023-05-19T04:45:10;101297.12;;;13.92;62.13
60642;BME280;46837;52.446;-1.930;2023-05-19T04:46:11;101297.31;;;13.93;62.03
60642;BME280;46837;52.446;-1.930;2023-05-19T04:47:09;101296.08;;;13.91;62.03
60642;BME280;46837;52.446;-1.930;2023-05-19T04:48:09;101298.12;;;13.92;62.08
60642;BME280;46837;52.446;-1.930;2023-05-19T04:49:09;101300.11;;;13.93;61.99
60642;BME280;46837;52.446;-1.930;2023-05-19T04:50:09;101306.06;;;13.96;61.93
60642;BME280;46837;52.446;-1.930;2023-05-19T04:51:09;101308.04;;;13.96;61.88
60642;BME280;46837;52.446;-1.930;2023-05-19T04:52:09;101313.16;;;13.96;61.89
60642;BME280;46837;52.446;-1.930;2023-05-19T04:53:09;101316.50;;;13.95;61.97
60642;BME280;46837;52.446;-1.930;2023-05-19T04:54:09;101318.58;;;13.95;62.02
60642;BME280;46837;52.446;-1.930;2023-05-19T04:55:09;101320.20;;;13.97;61.99
60642;BME280;46837;52.446;-1.930;2023-05-19T04:56:09;101321.01;;;13.97;61.95
60642;BME280;46837;52.446;-1.930;2023-05-19T04:57:09;101315.26;;;13.93;61.98
60642;BME280;46837;52.446;-1.930;2023-05-19T04:58:09;101316.26;;;13.94;61.89
60642;BME280;46837;52.446;-1.930;2023-05-19T04:59:09;101312.90;;;13.92;61.94
60642;BME280;46837;52.446;-1.930;2023-05-19T05:00:10;101312.70;;;13.93;62.01
60642;BME280;46837;52.446;-1.930;2023-05-19T05:01:09;101313.20;;;13.95;61.93
60642;BME280;46837;52.446;-1.930;2023-05-19T05:02:09;101313.29;;;13.94;61.95
60642;BME280;46837;52.446;-1.930;2023-05-19T05:03:09;101311.26;;;14.00;61.90
60642;BME280;46837;52.446;-1.930;2023-05-19T05:04:09;101309.10;;;13.99;61.89
60642;BME280;46837;52.446;-1.930;2023-05-19T05:05:09;101308.01;;;13.93;61.89
60642;BME280;46837;52.446;-1.930;2023-05-19T05:06:09;101310.16;;;13.94;61.90
60642;BME280;46837;52.446;-1.930;2023-05-19T05:07:09;101311.46;;;13.97;61.83
60642;BME280;46837;52.446;-1.930;2023-05-19T05:08:09;101311.42;;;14.01;61.80
60642;BME280;46837;52.446;-1.930;2023-05-19T05:09:09;101313.07;;;14.01;61.77
60642;BME280;46837;52.446;-1.930;2023-05-19T05:10:09;101313.59;;;14.05;61.77
60642;BME280;46837;52.446;-1.930;2023-05-19T05:11:09;101312.54;;;14.04;61.72
60642;BME280;46837;52.446;-1.930;2023-05-19T05:12:09;101314.53;;;14.05;61.83
60642;BME280;46837;52.446;-1.930;2023-05-19T05:13:09;101316.23;;;14.05;61.73
60642;BME280;46837;52.446;-1.930;2023-05-19T05:14:09;101312.37;;;14.02;61.73
60642;BME280;46837;52.446;-1.930;2023-05-19T05:15:09;101316.22;;;14.04;61.71
60642;BME280;46837;52.446;-1.930;2023-05-19T05:16:09;101317.88;;;14.05;61.73
60642;BME280;46837;52.446;-1.930;2023-05-19T05:17:10;101317.37;;;14.02;61.71
60642;BME280;46837;52.446;-1.930;2023-05-19T05:18:09;101321.23;;;14.03;61.73
60642;BME280;46837;52.446;-1.930;2023-05-19T05:19:09;101320.79;;;14.04;61.73
60642;BME280;46837;52.446;-1.930;2023-05-19T05:20:09;101321.29;;;14.03;61.65
60642;BME280;46837;52.446;-1.930;2023-05-19T05:21:09;101322.75;;;14.00;61.69
60642;BME280;46837;52.446;-1.930;2023-05-19T05:22:09;101324.89;;;14.00;61.71
60642;BME280;46837;52.446;-1.930;2023-05-19T05:23:09;101327.76;;;14.02;61.63
60642;BME280;46837;52.446;-1.930;2023-05-19T05:24:09;101333.27;;;14.03;61.60
60642;BME280;46837;52.446;-1.930;2023-05-19T05:25:09;101335.50;;;14.01;61.68
60642;BME280;46837;52.446;-1.930;2023-05-19T05:26:16;101337.49;;;14.04;61.68
60642;BME280;46837;52.446;-1.930;2023-05-19T05:27:09;101337.18;;;14.04;61.58
60642;BME280;46837;52.446;-1.930;2023-05-19T05:28:09;101336.70;;;14.06;61.58